createdAt,value
2022-09-09T00:00:38.588Z,1001.34
2022-09-09T00:01:38.567Z,1001.33
2022-09-09T00:02:38.722Z,1001.32
2022-09-09T00:03:38.699Z,1001.34
2022-09-09T00:04:38.524Z,1001.32
2022-09-09T00:05:38.539Z,1001.32
2022-09-09T00:06:38.533Z,1001.31
2022-09-09T00:07:38.501Z,1001.30
2022-09-09T00:08:38.491Z,1001.33
2022-09-09T00:09:38.496Z,1001.33
2022-09-09T00:10:38.467Z,1001.32
2022-09-09T00:11:38.459Z,1001.34
2022-09-09T00:12:38.456Z,1001.37
2022-09-09T00:13:38.436Z,1001.35
2022-09-09T00:14:38.430Z,1001.35
2022-09-09T00:15:38.441Z,1001.35
2022-09-09T00:16:38.404Z,1001.37
2022-09-09T00:17:38.381Z,1001.37
2022-09-09T00:18:38.387Z,1001.38
2022-09-09T00:19:38.379Z,1001.41
2022-09-09T00:20:38.362Z,1001.39
2022-09-09T00:21:38.366Z,1001.37
2022-09-09T00:22:38.336Z,1001.35
2022-09-09T00:23:38.327Z,1001.35
2022-09-09T00:24:38.332Z,1001.35
2022-09-09T00:25:38.301Z,1001.32
2022-09-09T00:26:38.300Z,1001.33
2022-09-09T00:27:38.293Z,1001.31
2022-09-09T00:28:38.273Z,1001.31
2022-09-09T00:29:38.271Z,1001.31
2022-09-09T00:30:38.328Z,1001.25
2022-09-09T00:31:38.301Z,1001.27
2022-09-09T00:32:38.249Z,1001.29
2022-09-09T00:33:38.226Z,1001.26
2022-09-09T00:34:38.198Z,1001.28
2022-09-09T00:35:38.205Z,1001.26
2022-09-09T00:36:38.183Z,1001.27
2022-09-09T00:37:38.192Z,1001.29
2022-09-09T00:38:38.163Z,1001.28
2022-09-09T00:39:38.208Z,1001.24
2022-09-09T00:40:38.138Z,1001.24
2022-09-09T00:41:38.138Z,1001.18
2022-09-09T00:42:38.121Z,1001.23
2022-09-09T00:43:38.102Z,1001.20
2022-09-09T00:44:38.090Z,1001.20
2022-09-09T00:45:38.078Z,1001.22
2022-09-09T00:46:38.186Z,1001.25
2022-09-09T00:47:38.139Z,1001.22
2022-09-09T00:48:38.046Z,1001.22
2022-09-09T00:49:38.048Z,1001.19
2022-09-09T00:50:38.035Z,1001.30
2022-09-09T00:51:38.021Z,1001.27
2022-09-09T00:52:38.030Z,1001.33
2022-09-09T00:53:38.009Z,1001.34
2022-09-09T00:54:37.983Z,1001.39
2022-09-09T00:55:37.970Z,1001.40
2022-09-09T00:56:37.954Z,1001.39
2022-09-09T00:57:37.945Z,1001.40
2022-09-09T00:58:37.968Z,1001.37
2022-09-09T00:59:37.924Z,1001.39
2022-09-09T01:00:37.911Z,1001.37
2022-09-09T01:01:37.962Z,1001.45
2022-09-09T01:02:37.997Z,1001.40
2022-09-09T01:03:37.914Z,1001.44
2022-09-09T01:04:37.893Z,1001.48
2022-09-09T01:05:37.875Z,1001.48
2022-09-09T01:06:37.850Z,1001.43
2022-09-09T01:07:37.861Z,1001.41
2022-09-09T01:08:37.831Z,1001.42
2022-09-09T01:09:37.870Z,1001.42
2022-09-09T01:10:37.830Z,1001.42
2022-09-09T01:11:37.797Z,1001.35
2022-09-09T01:12:37.784Z,1001.34
2022-09-09T01:13:37.767Z,1001.30
2022-09-09T01:14:37.770Z,1001.32
2022-09-09T01:15:37.751Z,1001.30
2022-09-09T01:16:37.789Z,1001.29
2022-09-09T01:17:37.732Z,1001.29
2022-09-09T01:18:37.718Z,1001.29
2022-09-09T01:19:37.694Z,1001.32
2022-09-09T01:20:37.705Z,1001.30
2022-09-09T01:21:37.686Z,1001.31
2022-09-09T01:22:37.669Z,1001.32
2022-09-09T01:23:37.660Z,1001.34
2022-09-09T01:24:37.646Z,1001.38
2022-09-09T01:25:37.658Z,1001.38
2022-09-09T01:26:37.642Z,1001.36
2022-09-09T01:27:37.635Z,1001.42
2022-09-09T01:28:37.596Z,1001.41
2022-09-09T01:29:37.585Z,1001.41
2022-09-09T01:30:37.655Z,1001.48
2022-09-09T01:31:37.565Z,1001.45
2022-09-09T01:32:37.574Z,1001.45
2022-09-09T01:33:37.540Z,1001.45
2022-09-09T01:34:37.530Z,1001.46
2022-09-09T01:35:37.529Z,1001.40
2022-09-09T01:36:37.512Z,1001.44
2022-09-09T01:37:37.516Z,1001.44
2022-09-09T01:38:37.497Z,1001.43
2022-09-09T01:39:37.568Z,1001.47
2022-09-09T01:40:37.480Z,1001.46
2022-09-09T01:41:37.495Z,1001.40
2022-09-09T01:42:37.451Z,1001.39
2022-09-09T01:43:37.452Z,1001.43
2022-09-09T01:44:37.426Z,1001.42
2022-09-09T01:45:37.484Z,1001.37
2022-09-09T01:46:37.405Z,1001.36
2022-09-09T01:47:37.407Z,1001.34
2022-09-09T01:48:37.593Z,1001.29
2022-09-09T01:49:37.364Z,1001.33
2022-09-09T01:50:37.385Z,1001.27
2022-09-09T01:51:37.341Z,1001.28
2022-09-09T01:52:37.328Z,1001.30
2022-09-09T01:53:37.350Z,1001.28
2022-09-09T01:54:37.315Z,1001.34
2022-09-09T01:55:37.296Z,1001.31
2022-09-09T01:56:37.285Z,1001.34
2022-09-09T01:57:37.310Z,1001.28
2022-09-09T01:58:37.442Z,1001.34
2022-09-09T01:59:37.269Z,1001.30
2022-09-09T02:00:37.247Z,1001.32
2022-09-09T02:01:37.431Z,1001.35
2022-09-09T02:02:37.266Z,1001.35
2022-09-09T02:03:37.215Z,1001.34
2022-09-09T02:04:37.197Z,1001.36
2022-09-09T02:05:37.189Z,1001.32
2022-09-09T02:06:37.184Z,1001.36
2022-09-09T02:07:37.186Z,1001.36
2022-09-09T02:08:37.290Z,1001.34
2022-09-09T02:09:37.142Z,1001.34
2022-09-09T02:10:37.152Z,1001.36
2022-09-09T02:11:37.137Z,1001.32
2022-09-09T02:12:37.108Z,1001.32
2022-09-09T02:13:37.138Z,1001.33
2022-09-09T02:14:37.100Z,1001.31
2022-09-09T02:15:37.089Z,1001.30
2022-09-09T02:16:37.162Z,1001.26
2022-09-09T02:17:37.056Z,1001.31
2022-09-09T02:18:37.279Z,1001.34
2022-09-09T02:19:37.045Z,1001.32
2022-09-09T02:20:37.033Z,1001.32
2022-09-09T02:21:37.023Z,1001.32
2022-09-09T02:22:37.008Z,1001.38
2022-09-09T02:23:36.999Z,1001.40
2022-09-09T02:24:36.984Z,1001.31
2022-09-09T02:25:36.969Z,1001.26
2022-09-09T02:26:37.003Z,1001.24
2022-09-09T02:27:36.951Z,1001.20
2022-09-09T02:28:37.073Z,1001.32
2022-09-09T02:29:36.945Z,1001.37
2022-09-09T02:30:36.985Z,1001.28
2022-09-09T02:31:36.912Z,1001.39
2022-09-09T02:32:36.905Z,1001.37
2022-09-09T02:33:36.883Z,1001.34
2022-09-09T02:34:36.870Z,1001.43
2022-09-09T02:35:36.879Z,1001.37
2022-09-09T02:36:36.847Z,1001.43
2022-09-09T02:37:36.841Z,1001.39
2022-09-09T02:38:36.982Z,1001.42
2022-09-09T02:39:36.862Z,1001.34
2022-09-09T02:40:36.807Z,1001.34
2022-09-09T02:41:36.811Z,1001.35
2022-09-09T02:42:36.792Z,1001.30
2022-09-09T02:43:36.771Z,1001.32
2022-09-09T02:44:36.760Z,1001.33
2022-09-09T02:45:36.829Z,1001.28
2022-09-09T02:46:36.737Z,1001.29
2022-09-09T02:47:36.743Z,1001.23
2022-09-09T02:48:36.901Z,1001.18
2022-09-09T02:49:36.727Z,1001.19
2022-09-09T02:50:36.696Z,1001.17
2022-09-09T02:51:36.694Z,1001.17
2022-09-09T02:52:36.667Z,1001.16
2022-09-09T02:53:36.673Z,1001.10
2022-09-09T02:54:36.644Z,1001.14
2022-09-09T02:55:36.639Z,1001.17
2022-09-09T02:56:36.652Z,1001.15
2022-09-09T02:57:36.643Z,1001.15
2022-09-09T02:58:36.736Z,1001.14
2022-09-09T02:59:36.597Z,1001.11
2022-09-09T03:00:36.585Z,1001.11
2022-09-09T03:01:36.678Z,1001.12
2022-09-09T03:02:36.663Z,1001.10
2022-09-09T03:03:36.543Z,1001.13
2022-09-09T03:04:36.534Z,1001.14
2022-09-09T03:05:36.530Z,1001.10
2022-09-09T03:06:36.528Z,1001.14
2022-09-09T03:07:36.507Z,1001.15
2022-09-09T03:08:36.630Z,1001.11
2022-09-09T03:09:36.490Z,1001.12
2022-09-09T03:10:36.489Z,1001.11
2022-09-09T03:11:36.457Z,1001.12
2022-09-09T03:12:36.460Z,1001.10
2022-09-09T03:13:36.446Z,1001.11
2022-09-09T03:14:36.426Z,1001.12
2022-09-09T03:15:36.417Z,1001.15
2022-09-09T03:16:36.462Z,1001.12
2022-09-09T03:17:36.415Z,1001.11
2022-09-09T03:18:36.515Z,1001.08
2022-09-09T03:19:36.373Z,1001.09
2022-09-09T03:20:36.366Z,1001.07
2022-09-09T03:21:36.355Z,1001.07
2022-09-09T03:22:36.352Z,1001.08
2022-09-09T03:23:36.334Z,1001.08
2022-09-09T03:24:36.326Z,1001.08
2022-09-09T03:25:36.308Z,1001.07
2022-09-09T03:26:36.289Z,1001.15
2022-09-09T03:27:36.285Z,1001.06
2022-09-09T03:28:36.506Z,1001.11
2022-09-09T03:29:36.259Z,1001.11
2022-09-09T03:30:36.252Z,1001.11
2022-09-09T03:31:36.266Z,1001.17
2022-09-09T03:32:36.242Z,1001.18
2022-09-09T03:33:36.249Z,1001.19
2022-09-09T03:34:36.207Z,1001.17
2022-09-09T03:35:36.194Z,1001.17
2022-09-09T03:36:36.189Z,1001.16
2022-09-09T03:37:36.170Z,1001.14
2022-09-09T03:38:36.340Z,1001.16
2022-09-09T03:39:36.211Z,1001.17
2022-09-09T03:40:36.148Z,1001.17
2022-09-09T03:41:36.129Z,1001.16
2022-09-09T03:42:36.122Z,1001.15
2022-09-09T03:43:36.100Z,1001.12
2022-09-09T03:44:36.112Z,1001.13
2022-09-09T03:45:36.132Z,1001.13
2022-09-09T03:46:36.075Z,1001.12
2022-09-09T03:47:36.076Z,1001.15
2022-09-09T03:48:36.187Z,1001.14
2022-09-09T03:49:36.056Z,1001.18
2022-09-09T03:50:36.025Z,1001.11
2022-09-09T03:51:36.018Z,1001.05
2022-09-09T03:52:36.014Z,1001.09
2022-09-09T03:53:35.991Z,1001.10
2022-09-09T03:54:35.997Z,1001.08
2022-09-09T03:55:35.993Z,1001.07
2022-09-09T03:56:35.992Z,1001.06
2022-09-09T03:57:35.951Z,1001.11
2022-09-09T03:58:36.002Z,1001.12
2022-09-09T03:59:35.923Z,1001.07
2022-09-09T04:00:35.913Z,1001.02
2022-09-09T04:01:35.908Z,1001.00
2022-09-09T04:02:35.991Z,1001.04
2022-09-09T04:03:35.894Z,1001.03
2022-09-09T04:04:35.886Z,1001.03
2022-09-09T04:05:35.887Z,1001.06
2022-09-09T04:06:35.882Z,1001.05
2022-09-09T04:07:35.848Z,1001.07
2022-09-09T04:08:36.047Z,1001.03
2022-09-09T04:09:35.818Z,1001.09
2022-09-09T04:10:35.816Z,1001.07
2022-09-09T04:11:35.800Z,1001.11
2022-09-09T04:12:35.801Z,1001.07
2022-09-09T04:13:35.770Z,1001.08
2022-09-09T04:14:35.759Z,1001.10
2022-09-09T04:15:35.766Z,1001.10
2022-09-09T04:16:35.816Z,1001.11
2022-09-09T04:17:35.726Z,1001.17
2022-09-09T04:18:35.977Z,1001.22
2022-09-09T04:19:35.702Z,1001.19
2022-09-09T04:20:35.699Z,1001.25
2022-09-09T04:21:35.722Z,1001.28
2022-09-09T04:22:35.679Z,1001.29
2022-09-09T04:23:35.720Z,1001.31
2022-09-09T04:24:35.653Z,1001.34
2022-09-09T04:25:35.644Z,1001.30
2022-09-09T04:26:35.641Z,1001.33
2022-09-09T04:27:35.619Z,1001.32
2022-09-09T04:28:35.630Z,1001.31
2022-09-09T04:29:35.618Z,1001.31
2022-09-09T04:30:35.601Z,1001.29
2022-09-09T04:31:35.722Z,1001.31
2022-09-09T04:32:35.573Z,1001.34
2022-09-09T04:33:39.972Z,1001.34
2022-09-09T04:34:35.541Z,1001.39
2022-09-09T04:35:35.555Z,1001.38
2022-09-09T04:36:35.554Z,1001.39
2022-09-09T04:37:35.538Z,1001.37
2022-09-09T04:38:35.623Z,1001.33
2022-09-09T04:39:35.526Z,1001.36
2022-09-09T04:40:35.484Z,1001.38
2022-09-09T04:41:35.464Z,1001.33
2022-09-09T04:42:35.471Z,1001.37
2022-09-09T04:43:35.446Z,1001.36
2022-09-09T04:44:35.444Z,1001.34
2022-09-09T04:45:35.514Z,1001.31
2022-09-09T04:46:35.424Z,1001.31
2022-09-09T04:47:35.403Z,1001.38
2022-09-09T04:48:35.572Z,1001.36
2022-09-09T04:49:35.374Z,1001.34
2022-09-09T04:50:35.373Z,1001.36
2022-09-09T04:51:35.358Z,1001.37
2022-09-09T04:52:35.349Z,1001.40
2022-09-09T04:53:35.365Z,1001.43
2022-09-09T04:54:35.367Z,1001.48
2022-09-09T04:55:35.312Z,1001.47
2022-09-09T04:56:35.311Z,1001.48
2022-09-09T04:57:35.298Z,1001.46
2022-09-09T04:58:35.423Z,1001.45
2022-09-09T04:59:35.284Z,1001.49
2022-09-09T05:00:35.299Z,1001.48
2022-09-09T05:01:35.254Z,1001.49
2022-09-09T05:02:35.281Z,1001.47
2022-09-09T05:03:35.221Z,1001.48
2022-09-09T05:04:35.227Z,1001.47
2022-09-09T05:05:35.202Z,1001.48
2022-09-09T05:06:35.224Z,1001.46
2022-09-09T05:07:35.188Z,1001.45
2022-09-09T05:08:35.173Z,1001.46
2022-09-09T05:09:35.195Z,1001.44
2022-09-09T05:10:35.175Z,1001.52
2022-09-09T05:11:35.138Z,1001.51
2022-09-09T05:12:35.116Z,1001.51
2022-09-09T05:13:38.412Z,1001.52
2022-09-09T05:14:36.105Z,1001.54
2022-09-09T05:15:35.108Z,1001.51
2022-09-09T05:16:35.112Z,1001.52
2022-09-09T05:17:35.119Z,1001.49
2022-09-09T05:18:35.136Z,1001.47
2022-09-09T05:19:35.053Z,1001.48
2022-09-09T05:20:35.053Z,1001.49
2022-09-09T05:21:35.036Z,1001.50
2022-09-09T05:22:35.014Z,1001.42
2022-09-09T05:23:35.019Z,1001.39
2022-09-09T05:24:35.027Z,1001.40
2022-09-09T05:25:35.046Z,1001.36
2022-09-09T05:26:34.964Z,1001.39
2022-09-09T05:27:34.985Z,1001.34
2022-09-09T05:28:34.959Z,1001.34
2022-09-09T05:29:34.977Z,1001.35
2022-09-09T05:30:34.938Z,1001.35
2022-09-09T05:31:34.972Z,1001.33
2022-09-09T05:32:34.925Z,1001.32
2022-09-09T05:33:34.907Z,1001.37
2022-09-09T05:34:34.913Z,1001.30
2022-09-09T05:35:34.881Z,1001.31
2022-09-09T05:36:34.858Z,1001.32
2022-09-09T05:37:34.838Z,1001.36
2022-09-09T05:38:34.883Z,1001.37
2022-09-09T05:39:34.911Z,1001.32
2022-09-09T05:40:34.816Z,1001.38
2022-09-09T05:41:34.823Z,1001.35
2022-09-09T05:42:34.820Z,1001.33
2022-09-09T05:43:34.820Z,1001.32
2022-09-09T05:44:34.808Z,1001.33
2022-09-09T05:45:34.769Z,1001.35
2022-09-09T05:46:34.852Z,1001.34
2022-09-09T05:47:34.741Z,1001.32
2022-09-09T05:48:34.747Z,1001.32
2022-09-09T05:49:34.752Z,1001.33
2022-09-09T05:50:34.702Z,1001.32
2022-09-09T05:51:34.682Z,1001.35
2022-09-09T05:52:34.727Z,1001.34
2022-09-09T05:53:34.699Z,1001.33
2022-09-09T05:54:34.660Z,1001.38
2022-09-09T05:55:34.652Z,1001.33
2022-09-09T05:56:34.669Z,1001.35
2022-09-09T05:57:34.663Z,1001.36
2022-09-09T05:58:34.639Z,1001.37
2022-09-09T05:59:34.626Z,1001.35
2022-09-09T06:00:34.595Z,1001.37
2022-09-09T06:01:34.737Z,1001.32
2022-09-09T06:02:34.684Z,1001.33
2022-09-09T06:03:34.660Z,1001.33
2022-09-09T06:04:34.594Z,1001.36
2022-09-09T06:05:34.558Z,1001.34
2022-09-09T06:06:34.530Z,1001.37
2022-09-09T06:07:34.526Z,1001.32
2022-09-09T06:08:34.606Z,1001.31
2022-09-09T06:09:34.514Z,1001.35
2022-09-09T06:10:34.502Z,1001.36
2022-09-09T06:11:34.481Z,1001.28
2022-09-09T06:12:35.417Z,1001.26
2022-09-09T06:13:34.489Z,1001.23
2022-09-09T06:14:34.431Z,1001.25
2022-09-09T06:15:34.417Z,1001.22
2022-09-09T06:16:34.534Z,1001.27
2022-09-09T06:17:34.418Z,1001.25
2022-09-09T06:18:34.420Z,1001.25
2022-09-09T06:19:34.394Z,1001.28
2022-09-09T06:20:34.374Z,1001.28
2022-09-09T06:21:34.387Z,1001.30
2022-09-09T06:22:34.379Z,1001.27
2022-09-09T06:23:34.342Z,1001.31
2022-09-09T06:24:34.324Z,1001.31
2022-09-09T06:25:34.351Z,1001.29
2022-09-09T06:26:34.355Z,1001.29
2022-09-09T06:27:34.312Z,1001.27
2022-09-09T06:28:34.391Z,1001.33
2022-09-09T06:29:34.313Z,1001.29
2022-09-09T06:30:34.279Z,1001.24
2022-09-09T06:31:34.317Z,1001.26
2022-09-09T06:32:34.265Z,1001.25
2022-09-09T06:33:34.228Z,1001.29
2022-09-09T06:34:34.228Z,1001.31
2022-09-09T06:35:34.205Z,1001.35
2022-09-09T06:36:34.190Z,1001.30
2022-09-09T06:37:34.195Z,1001.30
2022-09-09T06:38:34.173Z,1001.30
2022-09-09T06:39:34.243Z,1001.32
2022-09-09T06:40:34.164Z,1001.33
2022-09-09T06:41:34.145Z,1001.37
2022-09-09T06:42:34.139Z,1001.39
2022-09-09T06:43:34.108Z,1001.39
2022-09-09T06:44:35.476Z,1001.33
2022-09-09T06:45:34.145Z,1001.33
2022-09-09T06:46:34.367Z,1001.30
2022-09-09T06:47:34.075Z,1001.33
2022-09-09T06:48:34.078Z,1001.32
2022-09-09T06:49:34.077Z,1001.27
2022-09-09T06:50:34.051Z,1001.21
2022-09-09T06:51:34.157Z,1001.24
2022-09-09T06:52:34.012Z,1001.27
2022-09-09T06:53:34.029Z,1001.24
2022-09-09T06:54:33.991Z,1001.28
2022-09-09T06:55:33.992Z,1001.29
2022-09-09T06:56:34.028Z,1001.25
2022-09-09T06:57:37.425Z,1001.26
2022-09-09T06:58:33.971Z,1001.23
2022-09-09T06:59:33.959Z,1001.20
2022-09-09T07:00:34.006Z,1001.21
2022-09-09T07:01:34.127Z,1001.20
2022-09-09T07:02:33.933Z,1001.21
2022-09-09T07:03:33.907Z,1001.11
2022-09-09T07:04:33.902Z,1001.17
2022-09-09T07:05:33.884Z,1001.17
2022-09-09T07:06:33.871Z,1001.19
2022-09-09T07:07:33.874Z,1001.13
2022-09-09T07:08:33.841Z,1001.21
2022-09-09T07:09:33.839Z,1001.18
2022-09-09T07:10:33.837Z,1001.19
2022-09-09T07:11:33.804Z,1001.17
2022-09-09T07:12:33.829Z,1001.19
2022-09-09T07:13:33.800Z,1001.18
2022-09-09T07:14:33.773Z,1001.21
2022-09-09T07:15:33.792Z,1001.21
2022-09-09T07:16:33.804Z,1001.23
2022-09-09T07:17:33.776Z,1001.29
2022-09-09T07:18:33.865Z,1001.26
2022-09-09T07:19:33.710Z,1001.24
2022-09-09T07:20:33.700Z,1001.29
2022-09-09T07:21:33.724Z,1001.34
2022-09-09T07:22:33.692Z,1001.32
2022-09-09T07:23:36.248Z,1001.27
2022-09-09T07:24:33.664Z,1001.30
2022-09-09T07:25:33.691Z,1001.34
2022-09-09T07:26:33.634Z,1001.35
2022-09-09T07:27:33.660Z,1001.34
2022-09-09T07:28:33.740Z,1001.36
2022-09-09T07:29:33.630Z,1001.30
2022-09-09T07:30:33.601Z,1001.39
2022-09-09T07:31:33.725Z,1001.42
2022-09-09T07:32:33.577Z,1001.38
2022-09-09T07:33:33.644Z,1001.40
2022-09-09T07:34:33.550Z,1001.35
2022-09-09T07:35:33.589Z,1001.38
2022-09-09T07:36:33.854Z,1001.47
2022-09-09T07:37:33.526Z,1001.54
2022-09-09T07:38:33.530Z,1001.48
2022-09-09T07:39:33.577Z,1001.50
2022-09-09T07:40:33.504Z,1001.66
2022-09-09T07:41:33.495Z,1001.59
2022-09-09T07:42:33.925Z,1001.62
2022-09-09T07:43:33.455Z,1001.62
2022-09-09T07:44:34.977Z,1001.54
2022-09-09T07:45:33.445Z,1001.58
2022-09-09T07:46:33.538Z,1001.63
2022-09-09T07:47:33.486Z,1001.72
2022-09-09T07:48:33.507Z,1001.63
2022-09-09T07:49:33.413Z,1001.57
2022-09-09T07:50:33.392Z,1001.66
2022-09-09T07:51:33.375Z,1001.81
2022-09-09T07:52:33.376Z,1001.55
2022-09-09T07:53:33.419Z,1001.72
2022-09-09T07:54:33.336Z,1001.66
2022-09-09T07:55:33.326Z,1001.70
2022-09-09T07:56:33.657Z,1001.72
2022-09-09T07:57:33.315Z,1001.73
2022-09-09T07:58:38.175Z,1001.72
2022-09-09T07:59:34.272Z,1001.75
2022-09-09T08:00:33.311Z,1001.74
2022-09-09T08:01:33.332Z,1001.71
2022-09-09T08:02:33.262Z,1001.79
2022-09-09T08:03:33.271Z,1001.72
2022-09-09T08:04:33.263Z,1001.61
2022-09-09T08:05:33.245Z,1001.66
2022-09-09T08:06:33.192Z,1001.75
2022-09-09T08:07:33.190Z,1001.75
2022-09-09T08:08:33.260Z,1001.82
2022-09-09T08:09:33.199Z,1001.72
2022-09-09T08:10:33.180Z,1001.78
2022-09-09T08:11:38.041Z,1001.73
2022-09-09T08:12:36.338Z,1001.79
2022-09-09T08:13:33.216Z,1001.74
2022-09-09T08:14:33.160Z,1001.77
2022-09-09T08:15:33.111Z,1001.72
2022-09-09T08:16:33.220Z,1001.77
2022-09-09T08:17:33.084Z,1001.76
2022-09-09T08:18:33.084Z,1001.72
2022-09-09T08:19:33.105Z,1001.76
2022-09-09T08:20:35.929Z,1001.68
2022-09-09T08:21:33.029Z,1001.79
2022-09-09T08:22:33.065Z,1001.79
2022-09-09T08:23:33.082Z,1001.75
2022-09-09T08:24:33.018Z,1001.70
2022-09-09T08:25:32.989Z,1001.77
2022-09-09T08:26:33.973Z,1001.67
2022-09-09T08:27:33.001Z,1001.77
2022-09-09T08:28:32.962Z,1001.79
2022-09-09T08:29:32.963Z,1001.81
2022-09-09T08:30:33.029Z,1001.79
2022-09-09T08:31:32.975Z,1001.79
2022-09-09T08:32:32.910Z,1001.77
2022-09-09T08:33:32.946Z,1001.69
2022-09-09T08:34:32.978Z,1001.72
2022-09-09T08:35:32.872Z,1001.72
2022-09-09T08:36:32.891Z,1001.74
2022-09-09T08:37:32.994Z,1001.68
2022-09-09T08:38:33.422Z,1001.73
2022-09-09T08:39:32.899Z,1001.86
2022-09-09T08:40:32.845Z,1001.72
2022-09-09T08:41:32.818Z,1001.78
2022-09-09T08:42:32.826Z,1001.70
2022-09-09T08:43:32.856Z,1001.81
2022-09-09T08:44:32.857Z,1001.76
2022-09-09T08:45:32.799Z,1001.70
2022-09-09T08:46:32.862Z,1001.76
2022-09-09T08:47:34.049Z,1001.69
2022-09-09T08:48:32.818Z,1001.77
2022-09-09T08:49:32.725Z,1001.79
2022-09-09T08:50:32.713Z,1001.71
2022-09-09T08:51:32.871Z,1001.75
2022-09-09T08:52:32.756Z,1001.85
2022-09-09T08:53:32.725Z,1001.53
2022-09-09T08:54:50.988Z,1001.74
2022-09-09T08:55:33.659Z,1001.84
2022-09-09T08:56:32.683Z,1001.87
2022-09-09T08:57:32.706Z,1001.82
2022-09-09T08:58:32.708Z,1001.88
2022-09-09T08:59:32.639Z,1001.87
2022-09-09T09:00:32.663Z,1001.90
2022-09-09T09:01:33.598Z,1001.82
2022-09-09T09:02:32.915Z,1001.83
2022-09-09T09:03:33.598Z,1001.80
2022-09-09T09:04:32.628Z,1001.84
2022-09-09T09:05:32.546Z,1001.97
2022-09-09T09:06:32.560Z,1001.91
2022-09-09T09:07:33.093Z,1001.90
2022-09-09T09:08:32.672Z,1001.81
2022-09-09T09:09:32.525Z,1001.72
2022-09-09T09:10:43.115Z,1001.89
2022-09-09T09:11:33.508Z,1001.79
2022-09-09T09:12:32.481Z,1001.92
2022-09-09T09:13:32.488Z,1001.77
2022-09-09T09:14:32.744Z,1001.83
2022-09-09T09:15:32.824Z,1001.87
2022-09-09T09:16:32.459Z,1001.84
2022-09-09T09:17:32.430Z,1001.92
2022-09-09T09:18:32.472Z,1001.89
2022-09-09T09:19:32.533Z,1001.87
2022-09-09T09:20:32.468Z,1001.81
2022-09-09T09:21:32.500Z,1001.96
2022-09-09T09:22:32.383Z,1001.90
2022-09-09T09:23:32.356Z,1001.92
2022-09-09T09:24:32.364Z,1001.95
2022-09-09T09:25:32.344Z,1001.99
2022-09-09T09:26:32.514Z,1002.00
2022-09-09T09:27:32.517Z,1001.99
2022-09-09T09:28:32.303Z,1001.80
2022-09-09T09:29:32.370Z,1001.90
2022-09-09T09:30:32.319Z,1001.97
2022-09-09T09:31:32.325Z,1001.89
2022-09-09T09:32:32.486Z,1001.89
2022-09-09T09:33:32.252Z,1001.87
2022-09-09T09:34:32.252Z,1001.84
2022-09-09T09:35:33.543Z,1001.89
2022-09-09T09:36:32.224Z,1001.92
2022-09-09T09:37:32.226Z,1001.83
2022-09-09T09:40:33.306Z,1001.89
2022-09-09T09:41:32.174Z,1001.97
2022-09-09T09:42:32.171Z,1001.93
2022-09-09T09:43:32.284Z,1001.92
2022-09-09T09:44:32.198Z,1001.97
2022-09-09T09:45:32.124Z,1001.91
2022-09-09T09:46:32.511Z,1001.92
2022-09-09T09:47:32.104Z,1001.97
2022-09-09T09:48:32.109Z,1001.84
2022-09-09T09:49:32.103Z,1001.84
2022-09-09T09:50:32.105Z,1001.99
2022-09-09T09:51:32.057Z,1001.90
2022-09-09T09:52:32.078Z,1002.05
2022-09-09T09:53:32.111Z,1002.02
2022-09-09T09:54:32.026Z,1002.03
2022-09-09T09:55:32.007Z,1001.93
2022-09-09T09:56:32.065Z,1001.85
2022-09-09T09:57:32.079Z,1001.89
2022-09-09T09:58:31.991Z,1001.86
2022-09-09T09:59:40.229Z,1001.83
2022-09-09T10:00:32.961Z,1001.97
2022-09-09T10:01:32.049Z,1001.93
2022-09-09T10:02:31.954Z,1002.01
2022-09-09T10:03:32.111Z,1002.00
2022-09-09T10:04:31.983Z,1001.99
2022-09-09T10:05:36.126Z,1001.98
2022-09-09T10:06:31.920Z,1001.96
2022-09-09T10:07:31.897Z,1001.92
2022-09-09T10:08:31.955Z,1001.92
2022-09-09T10:09:31.929Z,1001.92
2022-09-09T10:10:31.857Z,1001.94
2022-09-09T10:11:31.867Z,1001.94
2022-09-09T10:12:31.881Z,1001.95
2022-09-09T10:13:32.028Z,1001.95
2022-09-09T10:14:31.805Z,1001.96
2022-09-09T10:15:31.879Z,1001.85
2022-09-09T10:16:31.813Z,1001.84
2022-09-09T10:17:31.801Z,1001.94
2022-09-09T10:18:31.763Z,1001.91
2022-09-09T10:19:31.771Z,1001.86
2022-09-09T10:20:31.742Z,1001.94
2022-09-09T10:21:33.311Z,1001.79
2022-09-09T10:22:31.724Z,1001.81
2022-09-09T10:23:31.783Z,1001.84
2022-09-09T10:24:31.772Z,1001.82
2022-09-09T10:25:31.867Z,1001.83
2022-09-09T10:26:31.696Z,1001.86
2022-09-09T10:27:31.673Z,1001.90
2022-09-09T10:28:31.693Z,1001.86
2022-09-09T10:29:32.489Z,1001.94
2022-09-09T10:30:31.713Z,1001.90
2022-09-09T10:31:31.651Z,1001.79
2022-09-09T10:32:31.617Z,1002.01
2022-09-09T10:33:32.785Z,1001.86
2022-09-09T10:34:32.454Z,1001.84
2022-09-09T10:35:31.635Z,1001.91
2022-09-09T10:36:31.614Z,1001.85
2022-09-09T10:37:31.560Z,1001.88
2022-09-09T10:38:31.596Z,1001.84
2022-09-09T10:39:31.606Z,1001.75
2022-09-09T10:40:31.586Z,1001.82
2022-09-09T10:41:31.530Z,1001.77
2022-09-09T10:42:31.514Z,1001.73
2022-09-09T10:43:31.504Z,1001.70
2022-09-09T10:44:31.544Z,1001.71
2022-09-09T10:45:31.493Z,1001.66
2022-09-09T10:46:31.544Z,1001.60
2022-09-09T10:47:31.503Z,1001.67
2022-09-09T10:48:31.464Z,1001.53
2022-09-09T10:49:31.558Z,1001.65
2022-09-09T10:50:57.171Z,1001.68
2022-09-09T10:51:32.442Z,1001.73
2022-09-09T10:52:31.399Z,1001.60
2022-09-09T10:53:31.432Z,1001.69
2022-09-09T10:54:31.386Z,1001.67
2022-09-09T10:55:31.540Z,1001.64
2022-09-09T10:56:31.353Z,1001.64
2022-09-09T10:57:31.368Z,1001.61
2022-09-09T10:58:31.349Z,1001.69
2022-09-09T10:59:31.327Z,1001.69
2022-09-09T11:00:31.334Z,1001.59
2022-09-09T11:01:31.595Z,1001.66
2022-09-09T11:02:31.352Z,1001.59
2022-09-09T11:03:31.297Z,1001.73
2022-09-09T11:04:31.275Z,1001.68
2022-09-09T11:05:31.261Z,1001.72
2022-09-09T11:06:31.364Z,1001.70
2022-09-09T11:07:31.267Z,1001.75
2022-09-09T11:08:31.231Z,1001.70
2022-09-09T11:09:31.222Z,1001.66
2022-09-09T11:10:31.195Z,1001.65
2022-09-09T11:11:31.195Z,1001.56
2022-09-09T11:12:31.211Z,1001.61
2022-09-09T11:13:31.228Z,1001.70
2022-09-09T11:14:35.311Z,1001.68
2022-09-09T11:15:32.166Z,1001.73
2022-09-09T11:16:31.190Z,1001.64
2022-09-09T11:17:31.148Z,1001.78
2022-09-09T11:18:31.111Z,1001.78
2022-09-09T11:19:31.099Z,1001.68
2022-09-09T11:20:31.469Z,1001.58
2022-09-09T11:21:31.126Z,1001.56
2022-09-09T11:22:31.075Z,1001.58
2022-09-09T11:23:31.086Z,1001.48
2022-09-09T11:24:31.106Z,1001.67
2022-09-09T11:25:31.026Z,1001.51
2022-09-09T11:26:31.162Z,1001.63
2022-09-09T11:27:31.045Z,1001.72
2022-09-09T11:28:31.000Z,1001.49
2022-09-09T11:29:30.985Z,1001.70
2022-09-09T11:30:55.711Z,1001.63
2022-09-09T11:31:32.017Z,1001.62
2022-09-09T11:32:31.412Z,1001.59
2022-09-09T11:33:30.958Z,1001.55
2022-09-09T11:34:30.968Z,1001.59
2022-09-09T11:35:30.925Z,1001.54
2022-09-09T11:36:30.932Z,1001.48
2022-09-09T11:37:30.910Z,1001.59
2022-09-09T11:38:30.970Z,1001.53
2022-09-09T11:39:30.989Z,1001.49
2022-09-09T11:40:30.892Z,1001.51
2022-09-09T11:41:30.867Z,1001.55
2022-09-09T11:42:30.853Z,1001.45
2022-09-09T11:43:30.838Z,1001.46
2022-09-09T11:44:30.994Z,1001.46
2022-09-09T11:45:30.835Z,1001.47
2022-09-09T11:46:30.886Z,1001.49
2022-09-09T11:47:30.792Z,1001.47
2022-09-09T11:48:30.799Z,1001.46
2022-09-09T11:49:30.760Z,1001.45
2022-09-09T11:50:30.791Z,1001.42
2022-09-09T11:51:30.748Z,1001.36
2022-09-09T11:52:30.751Z,1001.41
2022-09-09T11:53:30.717Z,1001.45
2022-09-09T11:54:30.737Z,1001.41
2022-09-09T11:55:30.751Z,1001.39
2022-09-09T11:56:30.707Z,1001.40
2022-09-09T11:57:30.677Z,1001.38
2022-09-09T11:58:30.664Z,1001.39
2022-09-09T11:59:30.683Z,1001.35
2022-09-09T12:00:30.661Z,1001.33
2022-09-09T12:01:30.668Z,1001.39
2022-09-09T12:02:30.656Z,1001.31
2022-09-09T12:03:30.604Z,1001.51
2022-09-09T12:04:30.692Z,1001.45
2022-09-09T12:05:30.616Z,1001.26
2022-09-09T12:06:30.589Z,1001.22
2022-09-09T12:07:30.580Z,1001.27